KDWH

David Wayne Hooks Memorial Airport

Houston, Texas, USA
METAR KDWH 191453Z 23007KT 10SM BKN015 29/24 A2996 RMK AO2 SLP142 T02940244 51009
Observed Flight Rules
Aug-19 @ 14:53 UTC (44 minutes ago) Marginal Visual Flight Rules
Wind Visibility Clouds
230° at 7 knots 10 miles
  • Broken at 1,500' AGL
Temperatures Readings
Current 29°C / 84°F
Dewpoint 24°C / 75°F
Humidity 74%
Altimeter 29.96" Hg
Pressure 1014.2 hPa
Elevation 46
METAR KDWH 191453Z 23007KT 10SM BKN015 29/24 A2996 RMK AO2 SLP142 T02940244 51009
Observed Flight Rules
Aug-19 @ 14:53 UTC
(44 minutes ago)
MVFR
Wind Visibility
230° at 7 knots 10 miles
Clouds
  • Broken at 1,500' AGL
Temperature Dewpoint
29°C / 84°F 24°C / 75°F
Humidity Altimeter Pressure
74% 29.96" Hg 1014.2 hPa